sensor_id;sensor_type;location;lat;lon;timestamp;P1;durP1;ratioP1;P2;durP2;ratioP2
10890;SDS011;5498;50.928;11.598;2022-12-20T00:02:33;14.87;;;8.03;;
10890;SDS011;5498;50.928;11.598;2022-12-20T00:05:35;16.00;;;9.00;;
10890;SDS011;5498;50.928;11.598;2022-12-20T00:08:37;15.67;;;9.20;;
10890;SDS011;5498;50.928;11.598;2022-12-20T00:11:40;16.23;;;7.93;;
10890;SDS011;5498;50.928;11.598;2022-12-20T00:14:44;17.63;;;8.80;;
10890;SDS011;5498;50.928;11.598;2022-12-20T00:17:46;16.13;;;8.60;;
10890;SDS011;5498;50.928;11.598;2022-12-20T00:20:48;19.83;;;8.37;;
10890;SDS011;5498;50.928;11.598;2022-12-20T00:24:01;15.07;;;8.67;;
10890;SDS011;5498;50.928;11.598;2022-12-20T00:27:04;15.60;;;8.40;;
10890;SDS011;5498;50.928;11.598;2022-12-20T00:30:08;16.03;;;8.43;;
10890;SDS011;5498;50.928;11.598;2022-12-20T00:33:11;13.33;;;7.73;;
10890;SDS011;5498;50.928;11.598;2022-12-20T00:36:13;17.20;;;9.10;;
10890;SDS011;5498;50.928;11.598;2022-12-20T00:39:17;18.20;;;8.07;;
10890;SDS011;5498;50.928;11.598;2022-12-20T00:42:21;13.80;;;7.37;;
10890;SDS011;5498;50.928;11.598;2022-12-20T00:45:25;11.73;;;7.03;;
10890;SDS011;5498;50.928;11.598;2022-12-20T00:48:27;14.90;;;8.37;;
10890;SDS011;5498;50.928;11.598;2022-12-20T00:51:33;14.43;;;8.03;;
10890;SDS011;5498;50.928;11.598;2022-12-20T00:54:35;12.83;;;7.63;;
10890;SDS011;5498;50.928;11.598;2022-12-20T00:57:37;16.80;;;8.23;;
10890;SDS011;5498;50.928;11.598;2022-12-20T01:00:41;12.30;;;8.37;;
10890;SDS011;5498;50.928;11.598;2022-12-20T01:03:43;17.43;;;8.43;;
10890;SDS011;5498;50.928;11.598;2022-12-20T01:06:45;17.47;;;8.50;;
10890;SDS011;5498;50.928;11.598;2022-12-20T01:09:47;14.77;;;7.90;;
10890;SDS011;5498;50.928;11.598;2022-12-20T01:12:49;15.07;;;7.13;;
10890;SDS011;5498;50.928;11.598;2022-12-20T01:15:53;16.57;;;7.73;;
10890;SDS011;5498;50.928;11.598;2022-12-20T01:18:55;13.87;;;7.03;;
10890;SDS011;5498;50.928;11.598;2022-12-20T01:21:57;13.07;;;6.97;;
10890;SDS011;5498;50.928;11.598;2022-12-20T01:24:59;11.70;;;5.67;;
10890;SDS011;5498;50.928;11.598;2022-12-20T01:28:01;9.50;;;5.53;;
10890;SDS011;5498;50.928;11.598;2022-12-20T01:31:06;9.93;;;5.87;;
10890;SDS011;5498;50.928;11.598;2022-12-20T01:34:08;13.70;;;6.10;;
10890;SDS011;5498;50.928;11.598;2022-12-20T01:37:13;12.27;;;7.40;;
10890;SDS011;5498;50.928;11.598;2022-12-20T01:40:15;13.17;;;6.60;;
10890;SDS011;5498;50.928;11.598;2022-12-20T01:43:17;10.73;;;6.90;;
10890;SDS011;5498;50.928;11.598;2022-12-20T01:46:22;10.10;;;6.10;;
10890;SDS011;5498;50.928;11.598;2022-12-20T01:49:27;9.80;;;5.77;;
10890;SDS011;5498;50.928;11.598;2022-12-20T01:52:35;12.33;;;5.83;;
10890;SDS011;5498;50.928;11.598;2022-12-20T01:55:40;18.47;;;7.07;;
10890;SDS011;5498;50.928;11.598;2022-12-20T01:58:43;12.33;;;6.80;;
10890;SDS011;5498;50.928;11.598;2022-12-20T02:01:50;14.40;;;6.93;;
10890;SDS011;5498;50.928;11.598;2022-12-20T02:04:53;11.03;;;6.30;;
10890;SDS011;5498;50.928;11.598;2022-12-20T02:07:55;11.73;;;6.30;;
10890;SDS011;5498;50.928;11.598;2022-12-20T02:11:01;12.87;;;6.50;;
10890;SDS011;5498;50.928;11.598;2022-12-20T02:14:27;13.33;;;6.93;;
10890;SDS011;5498;50.928;11.598;2022-12-20T02:17:43;13.33;;;6.90;;
10890;SDS011;5498;50.928;11.598;2022-12-20T02:28:18;13.03;;;7.13;;
10890;SDS011;5498;50.928;11.598;2022-12-20T02:31:45;11.53;;;6.80;;
10890;SDS011;5498;50.928;11.598;2022-12-20T02:34:54;14.33;;;7.40;;
10890;SDS011;5498;50.928;11.598;2022-12-20T02:37:57;13.20;;;7.30;;
10890;SDS011;5498;50.928;11.598;2022-12-20T02:41:02;17.70;;;8.17;;
10890;SDS011;5498;50.928;11.598;2022-12-20T02:44:14;12.03;;;7.60;;
10890;SDS011;5498;50.928;11.598;2022-12-20T02:47:38;13.50;;;7.50;;
10890;SDS011;5498;50.928;11.598;2022-12-20T02:50:49;15.33;;;7.60;;
10890;SDS011;5498;50.928;11.598;2022-12-20T02:53:54;10.27;;;6.43;;
10890;SDS011;5498;50.928;11.598;2022-12-20T02:56:59;11.93;;;6.77;;
10890;SDS011;5498;50.928;11.598;2022-12-20T03:00:10;15.53;;;6.73;;
10890;SDS011;5498;50.928;11.598;2022-12-20T03:03:17;11.13;;;7.00;;
10890;SDS011;5498;50.928;11.598;2022-12-20T03:06:24;12.67;;;7.00;;
10890;SDS011;5498;50.928;11.598;2022-12-20T03:09:26;12.63;;;6.43;;
10890;SDS011;5498;50.928;11.598;2022-12-20T03:12:29;14.27;;;7.27;;
10890;SDS011;5498;50.928;11.598;2022-12-20T03:15:31;14.57;;;6.83;;
10890;SDS011;5498;50.928;11.598;2022-12-20T03:18:34;13.90;;;6.60;;
10890;SDS011;5498;50.928;11.598;2022-12-20T03:21:36;14.60;;;7.53;;
10890;SDS011;5498;50.928;11.598;2022-12-20T03:24:40;15.60;;;7.23;;
10890;SDS011;5498;50.928;11.598;2022-12-20T03:27:42;12.90;;;7.67;;
10890;SDS011;5498;50.928;11.598;2022-12-20T03:30:45;11.97;;;6.70;;
10890;SDS011;5498;50.928;11.598;2022-12-20T03:33:50;13.03;;;7.40;;
10890;SDS011;5498;50.928;11.598;2022-12-20T03:36:52;14.37;;;8.70;;
10890;SDS011;5498;50.928;11.598;2022-12-20T03:39:54;17.00;;;8.80;;
10890;SDS011;5498;50.928;11.598;2022-12-20T03:42:56;16.53;;;7.97;;
10890;SDS011;5498;50.928;11.598;2022-12-20T03:45:58;12.73;;;7.43;;
10890;SDS011;5498;50.928;11.598;2022-12-20T03:49:02;13.87;;;7.63;;
10890;SDS011;5498;50.928;11.598;2022-12-20T03:52:04;12.27;;;7.53;;
10890;SDS011;5498;50.928;11.598;2022-12-20T03:55:06;15.00;;;8.47;;
10890;SDS011;5498;50.928;11.598;2022-12-20T03:58:12;13.73;;;7.67;;
10890;SDS011;5498;50.928;11.598;2022-12-20T04:01:22;14.83;;;7.60;;
10890;SDS011;5498;50.928;11.598;2022-12-20T04:04:27;15.83;;;8.10;;
10890;SDS011;5498;50.928;11.598;2022-12-20T04:07:29;13.17;;;7.77;;
10890;SDS011;5498;50.928;11.598;2022-12-20T04:10:31;13.53;;;7.90;;
10890;SDS011;5498;50.928;11.598;2022-12-20T04:13:53;12.83;;;7.03;;
10890;SDS011;5498;50.928;11.598;2022-12-20T04:16:55;17.33;;;9.27;;
10890;SDS011;5498;50.928;11.598;2022-12-20T04:19:58;13.93;;;7.43;;
10890;SDS011;5498;50.928;11.598;2022-12-20T04:23:17;15.67;;;8.17;;
10890;SDS011;5498;50.928;11.598;2022-12-20T04:26:20;15.07;;;7.93;;
10890;SDS011;5498;50.928;11.598;2022-12-20T04:29:23;17.30;;;8.00;;
10890;SDS011;5498;50.928;11.598;2022-12-20T04:32:26;15.07;;;7.90;;
10890;SDS011;5498;50.928;11.598;2022-12-20T04:35:29;16.30;;;8.53;;
10890;SDS011;5498;50.928;11.598;2022-12-20T04:38:32;15.47;;;8.83;;
10890;SDS011;5498;50.928;11.598;2022-12-20T04:41:34;12.53;;;7.23;;
10890;SDS011;5498;50.928;11.598;2022-12-20T04:44:36;15.47;;;8.17;;
10890;SDS011;5498;50.928;11.598;2022-12-20T04:47:38;12.10;;;6.93;;
10890;SDS011;5498;50.928;11.598;2022-12-20T04:50:41;13.40;;;7.87;;
10890;SDS011;5498;50.928;11.598;2022-12-20T04:53:43;16.90;;;8.13;;
10890;SDS011;5498;50.928;11.598;2022-12-20T04:56:49;17.83;;;7.97;;
10890;SDS011;5498;50.928;11.598;2022-12-20T04:59:51;13.13;;;7.53;;
10890;SDS011;5498;50.928;11.598;2022-12-20T05:02:53;13.07;;;7.63;;
10890;SDS011;5498;50.928;11.598;2022-12-20T05:05:56;18.23;;;7.33;;
10890;SDS011;5498;50.928;11.598;2022-12-20T05:08:58;11.20;;;6.80;;
10890;SDS011;5498;50.928;11.598;2022-12-20T05:12:00;11.57;;;6.80;;
10890;SDS011;5498;50.928;11.598;2022-12-20T05:15:03;13.23;;;7.60;;
10890;SDS011;5498;50.928;11.598;2022-12-20T05:18:06;11.07;;;7.27;;
10890;SDS011;5498;50.928;11.598;2022-12-20T05:21:12;10.63;;;7.27;;
10890;SDS011;5498;50.928;11.598;2022-12-20T05:24:32;14.33;;;6.90;;
10890;SDS011;5498;50.928;11.598;2022-12-20T05:27:51;12.17;;;7.17;;
10890;SDS011;5498;50.928;11.598;2022-12-20T05:30:53;14.13;;;6.93;;
10890;SDS011;5498;50.928;11.598;2022-12-20T05:33:55;9.17;;;5.97;;
10890;SDS011;5498;50.928;11.598;2022-12-20T05:36:59;13.63;;;6.77;;
10890;SDS011;5498;50.928;11.598;2022-12-20T05:40:01;11.33;;;6.57;;
10890;SDS011;5498;50.928;11.598;2022-12-20T05:43:04;10.60;;;6.40;;
10890;SDS011;5498;50.928;11.598;2022-12-20T05:46:06;9.60;;;5.73;;
10890;SDS011;5498;50.928;11.598;2022-12-20T05:49:11;10.63;;;5.97;;
10890;SDS011;5498;50.928;11.598;2022-12-20T05:52:15;12.90;;;6.27;;
10890;SDS011;5498;50.928;11.598;2022-12-20T05:55:17;11.37;;;6.90;;
10890;SDS011;5498;50.928;11.598;2022-12-20T05:58:19;12.63;;;7.00;;
10890;SDS011;5498;50.928;11.598;2022-12-20T06:01:21;11.27;;;6.47;;
10890;SDS011;5498;50.928;11.598;2022-12-20T06:04:24;11.00;;;6.73;;
10890;SDS011;5498;50.928;11.598;2022-12-20T06:07:27;12.77;;;6.67;;
10890;SDS011;5498;50.928;11.598;2022-12-20T06:10:30;17.57;;;6.97;;
10890;SDS011;5498;50.928;11.598;2022-12-20T06:13:33;12.53;;;7.20;;
10890;SDS011;5498;50.928;11.598;2022-12-20T06:16:35;12.33;;;7.13;;
10890;SDS011;5498;50.928;11.598;2022-12-20T06:19:40;15.60;;;7.00;;
10890;SDS011;5498;50.928;11.598;2022-12-20T06:22:43;12.67;;;6.77;;
10890;SDS011;5498;50.928;11.598;2022-12-20T06:25:45;15.60;;;7.33;;
10890;SDS011;5498;50.928;11.598;2022-12-20T06:28:49;11.43;;;6.83;;
10890;SDS011;5498;50.928;11.598;2022-12-20T06:31:54;12.10;;;7.20;;
10890;SDS011;5498;50.928;11.598;2022-12-20T06:34:57;13.27;;;6.73;;
10890;SDS011;5498;50.928;11.598;2022-12-20T06:38:00;11.50;;;6.83;;
10890;SDS011;5498;50.928;11.598;2022-12-20T06:41:02;10.80;;;6.97;;
10890;SDS011;5498;50.928;11.598;2022-12-20T06:44:04;14.23;;;7.60;;
10890;SDS011;5498;50.928;11.598;2022-12-20T06:47:07;12.67;;;6.80;;
10890;SDS011;5498;50.928;11.598;2022-12-20T06:50:09;13.13;;;7.17;;
10890;SDS011;5498;50.928;11.598;2022-12-20T06:53:12;11.33;;;6.77;;
10890;SDS011;5498;50.928;11.598;2022-12-20T06:56:15;11.53;;;7.10;;
10890;SDS011;5498;50.928;11.598;2022-12-20T06:59:17;14.87;;;7.93;;
10890;SDS011;5498;50.928;11.598;2022-12-20T07:02:19;14.23;;;7.60;;
10890;SDS011;5498;50.928;11.598;2022-12-20T07:05:21;15.33;;;8.07;;
10890;SDS011;5498;50.928;11.598;2022-12-20T07:08:25;10.70;;;7.20;;
10890;SDS011;5498;50.928;11.598;2022-12-20T07:11:27;13.77;;;8.03;;
10890;SDS011;5498;50.928;11.598;2022-12-20T07:14:29;11.40;;;6.23;;
10890;SDS011;5498;50.928;11.598;2022-12-20T07:17:31;14.10;;;7.43;;
10890;SDS011;5498;50.928;11.598;2022-12-20T07:20:33;14.47;;;7.83;;
10890;SDS011;5498;50.928;11.598;2022-12-20T07:23:38;12.83;;;7.87;;
10890;SDS011;5498;50.928;11.598;2022-12-20T07:26:43;12.87;;;7.70;;
10890;SDS011;5498;50.928;11.598;2022-12-20T07:29:45;15.83;;;8.07;;
10890;SDS011;5498;50.928;11.598;2022-12-20T07:32:47;11.80;;;7.03;;
10890;SDS011;5498;50.928;11.598;2022-12-20T07:35:50;14.50;;;7.57;;
10890;SDS011;5498;50.928;11.598;2022-12-20T07:38:54;13.57;;;7.63;;
10890;SDS011;5498;50.928;11.598;2022-12-20T07:41:56;12.13;;;7.83;;
10890;SDS011;5498;50.928;11.598;2022-12-20T07:44:58;17.50;;;7.83;;
10890;SDS011;5498;50.928;11.598;2022-12-20T07:48:00;10.17;;;6.70;;
10890;SDS011;5498;50.928;11.598;2022-12-20T07:51:03;17.67;;;8.20;;
10890;SDS011;5498;50.928;11.598;2022-12-20T07:54:11;12.77;;;7.43;;
10890;SDS011;5498;50.928;11.598;2022-12-20T07:57:18;17.43;;;7.37;;
10890;SDS011;5498;50.928;11.598;2022-12-20T08:00:24;14.93;;;7.70;;
10890;SDS011;5498;50.928;11.598;2022-12-20T08:03:27;15.10;;;8.00;;
10890;SDS011;5498;50.928;11.598;2022-12-20T08:06:36;13.33;;;7.60;;
10890;SDS011;5498;50.928;11.598;2022-12-20T08:09:41;12.00;;;7.67;;
10890;SDS011;5498;50.928;11.598;2022-12-20T08:12:45;13.87;;;7.10;;
10890;SDS011;5498;50.928;11.598;2022-12-20T08:15:48;13.30;;;7.70;;
10890;SDS011;5498;50.928;11.598;2022-12-20T08:18:51;15.07;;;8.00;;
10890;SDS011;5498;50.928;11.598;2022-12-20T08:21:53;13.53;;;8.10;;
10890;SDS011;5498;50.928;11.598;2022-12-20T08:24:56;14.67;;;8.63;;
10890;SDS011;5498;50.928;11.598;2022-12-20T08:27:59;13.00;;;8.40;;
10890;SDS011;5498;50.928;11.598;2022-12-20T08:31:03;15.20;;;8.63;;
10890;SDS011;5498;50.928;11.598;2022-12-20T08:34:07;16.67;;;8.80;;
10890;SDS011;5498;50.928;11.598;2022-12-20T08:37:10;20.83;;;10.00;;
10890;SDS011;5498;50.928;11.598;2022-12-20T08:40:14;14.53;;;7.90;;
10890;SDS011;5498;50.928;11.598;2022-12-20T08:43:16;17.70;;;8.27;;
10890;SDS011;5498;50.928;11.598;2022-12-20T08:46:18;15.60;;;7.83;;
10890;SDS011;5498;50.928;11.598;2022-12-20T08:49:20;17.37;;;9.57;;
10890;SDS011;5498;50.928;11.598;2022-12-20T08:52:22;16.90;;;7.83;;
10890;SDS011;5498;50.928;11.598;2022-12-20T08:55:25;11.90;;;7.80;;
10890;SDS011;5498;50.928;11.598;2022-12-20T08:58:28;13.17;;;7.77;;
10890;SDS011;5498;50.928;11.598;2022-12-20T09:01:30;16.60;;;8.10;;
10890;SDS011;5498;50.928;11.598;2022-12-20T09:04:32;18.00;;;8.23;;
10890;SDS011;5498;50.928;11.598;2022-12-20T09:07:34;14.70;;;8.70;;
10890;SDS011;5498;50.928;11.598;2022-12-20T09:10:38;12.30;;;8.07;;
10890;SDS011;5498;50.928;11.598;2022-12-20T09:13:41;15.63;;;8.50;;
10890;SDS011;5498;50.928;11.598;2022-12-20T09:16:45;13.00;;;7.67;;
10890;SDS011;5498;50.928;11.598;2022-12-20T09:19:47;15.20;;;7.33;;
10890;SDS011;5498;50.928;11.598;2022-12-20T09:22:49;13.60;;;7.67;;
10890;SDS011;5498;50.928;11.598;2022-12-20T09:25:52;14.30;;;6.80;;
10890;SDS011;5498;50.928;11.598;2022-12-20T09:28:55;13.10;;;6.83;;
10890;SDS011;5498;50.928;11.598;2022-12-20T09:31:57;13.33;;;6.50;;
10890;SDS011;5498;50.928;11.598;2022-12-20T09:35:00;12.53;;;7.43;;
10890;SDS011;5498;50.928;11.598;2022-12-20T09:38:02;13.20;;;7.33;;
10890;SDS011;5498;50.928;11.598;2022-12-20T09:41:06;13.77;;;7.10;;
10890;SDS011;5498;50.928;11.598;2022-12-20T09:44:19;13.30;;;7.07;;
10890;SDS011;5498;50.928;11.598;2022-12-20T09:47:25;10.53;;;6.77;;
10890;SDS011;5498;50.928;11.598;2022-12-20T09:50:31;13.40;;;7.13;;
10890;SDS011;5498;50.928;11.598;2022-12-20T09:53:47;15.20;;;7.00;;
10890;SDS011;5498;50.928;11.598;2022-12-20T09:57:04;14.67;;;6.80;;
10890;SDS011;5498;50.928;11.598;2022-12-20T10:00:15;11.60;;;6.33;;
10890;SDS011;5498;50.928;11.598;2022-12-20T10:03:20;10.50;;;6.57;;
10890;SDS011;5498;50.928;11.598;2022-12-20T10:06:29;10.33;;;5.67;;
10890;SDS011;5498;50.928;11.598;2022-12-20T10:09:54;13.30;;;6.67;;
10890;SDS011;5498;50.928;11.598;2022-12-20T10:13:12;10.77;;;6.20;;
10890;SDS011;5498;50.928;11.598;2022-12-20T10:16:38;11.57;;;7.43;;
10890;SDS011;5498;50.928;11.598;2022-12-20T10:19:56;9.93;;;5.60;;
10890;SDS011;5498;50.928;11.598;2022-12-20T10:23:15;11.60;;;6.00;;
10890;SDS011;5498;50.928;11.598;2022-12-20T10:26:25;10.30;;;5.90;;
10890;SDS011;5498;50.928;11.598;2022-12-20T10:29:29;12.37;;;6.60;;
10890;SDS011;5498;50.928;11.598;2022-12-20T10:32:37;9.80;;;6.57;;
10890;SDS011;5498;50.928;11.598;2022-12-20T10:35:40;10.73;;;6.40;;
10890;SDS011;5498;50.928;11.598;2022-12-20T10:38:43;13.70;;;7.87;;
10890;SDS011;5498;50.928;11.598;2022-12-20T10:41:48;11.67;;;6.40;;
10890;SDS011;5498;50.928;11.598;2022-12-20T10:44:52;10.93;;;6.83;;
10890;SDS011;5498;50.928;11.598;2022-12-20T10:47:57;13.23;;;7.43;;
10890;SDS011;5498;50.928;11.598;2022-12-20T10:51:01;11.73;;;6.53;;
10890;SDS011;5498;50.928;11.598;2022-12-20T10:54:19;12.27;;;6.97;;
10890;SDS011;5498;50.928;11.598;2022-12-20T10:57:24;13.47;;;7.07;;
10890;SDS011;5498;50.928;11.598;2022-12-20T11:00:31;14.20;;;6.83;;
10890;SDS011;5498;50.928;11.598;2022-12-20T11:03:37;14.37;;;6.77;;
10890;SDS011;5498;50.928;11.598;2022-12-20T11:06:52;12.17;;;6.43;;
10890;SDS011;5498;50.928;11.598;2022-12-20T11:09:55;9.60;;;6.47;;
10890;SDS011;5498;50.928;11.598;2022-12-20T11:13:00;13.33;;;7.20;;
10890;SDS011;5498;50.928;11.598;2022-12-20T11:16:05;14.77;;;6.87;;
10890;SDS011;5498;50.928;11.598;2022-12-20T11:19:30;12.67;;;7.00;;
10890;SDS011;5498;50.928;11.598;2022-12-20T11:22:54;12.90;;;7.43;;
10890;SDS011;5498;50.928;11.598;2022-12-20T11:26:15;12.90;;;7.30;;
10890;SDS011;5498;50.928;11.598;2022-12-20T11:29:35;9.13;;;6.13;;
10890;SDS011;5498;50.928;11.598;2022-12-20T11:33:17;9.93;;;6.43;;
10890;SDS011;5498;50.928;11.598;2022-12-20T11:36:40;17.10;;;7.33;;
10890;SDS011;5498;50.928;11.598;2022-12-20T11:40:16;10.80;;;6.23;;
10890;SDS011;5498;50.928;11.598;2022-12-20T11:43:35;11.57;;;6.83;;
10890;SDS011;5498;50.928;11.598;2022-12-20T11:46:56;12.87;;;6.47;;
10890;SDS011;5498;50.928;11.598;2022-12-20T11:50:17;12.77;;;6.73;;
10890;SDS011;5498;50.928;11.598;2022-12-20T11:53:44;11.27;;;6.03;;
10890;SDS011;5498;50.928;11.598;2022-12-20T11:56:55;10.90;;;6.27;;
10890;SDS011;5498;50.928;11.598;2022-12-20T12:00:05;14.50;;;7.47;;
10890;SDS011;5498;50.928;11.598;2022-12-20T12:03:13;11.67;;;6.50;;
10890;SDS011;5498;50.928;11.598;2022-12-20T12:06:24;13.83;;;6.20;;
10890;SDS011;5498;50.928;11.598;2022-12-20T12:09:31;10.30;;;5.30;;
10890;SDS011;5498;50.928;11.598;2022-12-20T12:12:39;11.60;;;6.20;;
10890;SDS011;5498;50.928;11.598;2022-12-20T12:15:46;12.17;;;6.27;;
10890;SDS011;5498;50.928;11.598;2022-12-20T12:18:56;10.33;;;6.57;;
10890;SDS011;5498;50.928;11.598;2022-12-20T12:22:01;11.40;;;6.40;;
10890;SDS011;5498;50.928;11.598;2022-12-20T12:25:12;8.93;;;5.93;;
10890;SDS011;5498;50.928;11.598;2022-12-20T12:28:18;10.10;;;6.33;;
10890;SDS011;5498;50.928;11.598;2022-12-20T12:31:22;15.07;;;6.67;;
10890;SDS011;5498;50.928;11.598;2022-12-20T12:34:33;10.17;;;5.93;;
10890;SDS011;5498;50.928;11.598;2022-12-20T12:37:54;17.00;;;6.30;;
10890;SDS011;5498;50.928;11.598;2022-12-20T12:41:22;10.87;;;5.97;;
10890;SDS011;5498;50.928;11.598;2022-12-20T12:44:52;21.13;;;10.07;;
10890;SDS011;5498;50.928;11.598;2022-12-20T12:47:59;11.90;;;5.97;;
10890;SDS011;5498;50.928;11.598;2022-12-20T12:51:05;12.57;;;6.83;;
10890;SDS011;5498;50.928;11.598;2022-12-20T12:54:15;9.20;;;5.90;;
10890;SDS011;5498;50.928;11.598;2022-12-20T12:57:21;10.23;;;6.17;;
10890;SDS011;5498;50.928;11.598;2022-12-20T13:04:09;11.83;;;6.03;;
10890;SDS011;5498;50.928;11.598;2022-12-20T13:07:24;7.37;;;4.90;;
10890;SDS011;5498;50.928;11.598;2022-12-20T13:17:52;8.10;;;5.43;;
10890;SDS011;5498;50.928;11.598;2022-12-20T13:24:50;14.10;;;7.37;;
10890;SDS011;5498;50.928;11.598;2022-12-20T13:31:44;10.17;;;6.33;;
10890;SDS011;5498;50.928;11.598;2022-12-20T13:34:52;10.87;;;5.27;;
10890;SDS011;5498;50.928;11.598;2022-12-20T13:37:56;10.50;;;6.03;;
10890;SDS011;5498;50.928;11.598;2022-12-20T13:41:08;10.47;;;6.50;;
10890;SDS011;5498;50.928;11.598;2022-12-20T13:47:44;9.10;;;5.83;;
10890;SDS011;5498;50.928;11.598;2022-12-20T13:50:51;9.67;;;6.53;;
10890;SDS011;5498;50.928;11.598;2022-12-20T13:53:55;9.77;;;6.17;;
10890;SDS011;5498;50.928;11.598;2022-12-20T13:57:01;9.63;;;6.37;;
10890;SDS011;5498;50.928;11.598;2022-12-20T14:00:15;12.43;;;6.20;;
10890;SDS011;5498;50.928;11.598;2022-12-20T14:03:20;9.17;;;6.30;;
10890;SDS011;5498;50.928;11.598;2022-12-20T14:06:25;10.73;;;6.37;;
10890;SDS011;5498;50.928;11.598;2022-12-20T14:09:29;11.57;;;6.33;;
10890;SDS011;5498;50.928;11.598;2022-12-20T14:12:33;12.93;;;6.27;;
10890;SDS011;5498;50.928;11.598;2022-12-20T14:15:36;12.93;;;6.20;;
10890;SDS011;5498;50.928;11.598;2022-12-20T14:18:38;9.33;;;5.67;;
10890;SDS011;5498;50.928;11.598;2022-12-20T14:21:41;13.37;;;6.37;;
10890;SDS011;5498;50.928;11.598;2022-12-20T14:24:45;10.27;;;6.60;;
10890;SDS011;5498;50.928;11.598;2022-12-20T14:27:47;10.80;;;6.30;;
10890;SDS011;5498;50.928;11.598;2022-12-20T14:30:54;12.27;;;6.20;;
10890;SDS011;5498;50.928;11.598;2022-12-20T14:34:01;11.90;;;6.17;;
10890;SDS011;5498;50.928;11.598;2022-12-20T14:37:23;9.53;;;6.63;;
10890;SDS011;5498;50.928;11.598;2022-12-20T14:40:29;13.93;;;6.87;;
10890;SDS011;5498;50.928;11.598;2022-12-20T14:43:32;13.13;;;8.33;;
10890;SDS011;5498;50.928;11.598;2022-12-20T14:46:38;13.63;;;9.13;;
10890;SDS011;5498;50.928;11.598;2022-12-20T14:49:45;16.97;;;8.80;;
10890;SDS011;5498;50.928;11.598;2022-12-20T14:52:51;16.27;;;7.83;;
10890;SDS011;5498;50.928;11.598;2022-12-20T14:55:53;13.10;;;7.37;;
10890;SDS011;5498;50.928;11.598;2022-12-20T14:59:05;13.40;;;7.47;;
10890;SDS011;5498;50.928;11.598;2022-12-20T15:02:32;12.23;;;6.67;;
10890;SDS011;5498;50.928;11.598;2022-12-20T15:05:41;17.17;;;6.80;;
10890;SDS011;5498;50.928;11.598;2022-12-20T15:08:47;13.00;;;7.80;;
10890;SDS011;5498;50.928;11.598;2022-12-20T15:11:49;14.47;;;7.93;;
10890;SDS011;5498;50.928;11.598;2022-12-20T15:14:52;12.13;;;6.60;;
10890;SDS011;5498;50.928;11.598;2022-12-20T15:17:55;13.57;;;7.53;;
10890;SDS011;5498;50.928;11.598;2022-12-20T15:20:59;11.07;;;6.37;;
10890;SDS011;5498;50.928;11.598;2022-12-20T15:24:08;12.40;;;6.20;;
10890;SDS011;5498;50.928;11.598;2022-12-20T15:27:13;11.67;;;5.50;;
10890;SDS011;5498;50.928;11.598;2022-12-20T15:30:16;11.70;;;6.37;;
10890;SDS011;5498;50.928;11.598;2022-12-20T15:33:21;17.17;;;6.53;;
10890;SDS011;5498;50.928;11.598;2022-12-20T15:36:26;13.77;;;6.17;;
10890;SDS011;5498;50.928;11.598;2022-12-20T15:39:29;10.63;;;6.47;;
10890;SDS011;5498;50.928;11.598;2022-12-20T15:42:33;12.00;;;6.30;;
10890;SDS011;5498;50.928;11.598;2022-12-20T15:45:35;13.13;;;6.73;;
10890;SDS011;5498;50.928;11.598;2022-12-20T15:48:38;11.97;;;7.07;;
10890;SDS011;5498;50.928;11.598;2022-12-20T15:51:40;13.00;;;7.13;;
10890;SDS011;5498;50.928;11.598;2022-12-20T15:54:43;12.50;;;7.37;;
10890;SDS011;5498;50.928;11.598;2022-12-20T15:57:45;15.50;;;8.23;;
10890;SDS011;5498;50.928;11.598;2022-12-20T16:00:47;14.60;;;7.63;;
10890;SDS011;5498;50.928;11.598;2022-12-20T16:03:51;15.57;;;7.27;;
10890;SDS011;5498;50.928;11.598;2022-12-20T16:06:53;14.87;;;7.80;;
10890;SDS011;5498;50.928;11.598;2022-12-20T16:09:55;12.90;;;7.53;;
10890;SDS011;5498;50.928;11.598;2022-12-20T16:12:57;17.63;;;8.20;;
10890;SDS011;5498;50.928;11.598;2022-12-20T16:15:58;15.30;;;8.20;;
10890;SDS011;5498;50.928;11.598;2022-12-20T16:19:04;12.87;;;7.13;;
10890;SDS011;5498;50.928;11.598;2022-12-20T16:22:07;12.30;;;7.17;;
10890;SDS011;5498;50.928;11.598;2022-12-20T16:25:19;12.70;;;8.17;;
10890;SDS011;5498;50.928;11.598;2022-12-20T16:28:27;14.27;;;7.67;;
10890;SDS011;5498;50.928;11.598;2022-12-20T16:31:30;17.73;;;7.70;;
10890;SDS011;5498;50.928;11.598;2022-12-20T16:34:36;14.00;;;7.97;;
10890;SDS011;5498;50.928;11.598;2022-12-20T16:37:37;20.50;;;8.13;;
10890;SDS011;5498;50.928;11.598;2022-12-20T16:40:39;13.03;;;7.90;;
10890;SDS011;5498;50.928;11.598;2022-12-20T16:43:41;15.83;;;7.63;;
10890;SDS011;5498;50.928;11.598;2022-12-20T16:46:44;13.33;;;6.70;;
10890;SDS011;5498;50.928;11.598;2022-12-20T16:49:47;11.77;;;7.43;;
10890;SDS011;5498;50.928;11.598;2022-12-20T16:52:49;11.87;;;7.30;;
10890;SDS011;5498;50.928;11.598;2022-12-20T16:55:51;13.37;;;7.40;;
10890;SDS011;5498;50.928;11.598;2022-12-20T16:58:53;16.33;;;7.77;;
10890;SDS011;5498;50.928;11.598;2022-12-20T17:01:56;14.90;;;8.37;;
10890;SDS011;5498;50.928;11.598;2022-12-20T17:05:02;28.37;;;8.17;;
10890;SDS011;5498;50.928;11.598;2022-12-20T17:08:04;12.20;;;7.20;;
10890;SDS011;5498;50.928;11.598;2022-12-20T17:11:13;12.40;;;7.97;;
10890;SDS011;5498;50.928;11.598;2022-12-20T17:14:16;14.90;;;7.13;;
10890;SDS011;5498;50.928;11.598;2022-12-20T17:17:18;12.10;;;7.77;;
10890;SDS011;5498;50.928;11.598;2022-12-20T17:20:22;11.80;;;7.27;;
10890;SDS011;5498;50.928;11.598;2022-12-20T17:23:24;11.23;;;6.77;;
10890;SDS011;5498;50.928;11.598;2022-12-20T17:26:27;13.70;;;7.33;;
10890;SDS011;5498;50.928;11.598;2022-12-20T17:29:30;16.33;;;7.63;;
10890;SDS011;5498;50.928;11.598;2022-12-20T17:32:32;15.37;;;7.80;;
10890;SDS011;5498;50.928;11.598;2022-12-20T17:35:35;13.07;;;7.37;;
10890;SDS011;5498;50.928;11.598;2022-12-20T17:38:37;13.63;;;8.13;;
10890;SDS011;5498;50.928;11.598;2022-12-20T17:41:39;19.87;;;8.33;;
10890;SDS011;5498;50.928;11.598;2022-12-20T17:44:41;11.73;;;7.03;;
10890;SDS011;5498;50.928;11.598;2022-12-20T17:47:45;13.83;;;7.37;;
10890;SDS011;5498;50.928;11.598;2022-12-20T17:50:48;10.20;;;6.80;;
10890;SDS011;5498;50.928;11.598;2022-12-20T17:53:50;15.07;;;7.77;;
10890;SDS011;5498;50.928;11.598;2022-12-20T17:56:54;12.33;;;7.20;;
10890;SDS011;5498;50.928;11.598;2022-12-20T17:59:56;14.40;;;7.63;;
10890;SDS011;5498;50.928;11.598;2022-12-20T18:02:59;13.67;;;8.10;;
10890;SDS011;5498;50.928;11.598;2022-12-20T18:06:05;13.50;;;7.57;;
10890;SDS011;5498;50.928;11.598;2022-12-20T18:09:11;14.03;;;6.70;;
10890;SDS011;5498;50.928;11.598;2022-12-20T18:12:16;13.43;;;7.43;;
10890;SDS011;5498;50.928;11.598;2022-12-20T18:15:19;12.83;;;7.13;;
10890;SDS011;5498;50.928;11.598;2022-12-20T18:18:20;13.57;;;7.00;;
10890;SDS011;5498;50.928;11.598;2022-12-20T18:21:25;13.03;;;6.60;;
10890;SDS011;5498;50.928;11.598;2022-12-20T18:24:28;12.07;;;6.53;;
10890;SDS011;5498;50.928;11.598;2022-12-20T18:27:29;11.37;;;6.40;;
10890;SDS011;5498;50.928;11.598;2022-12-20T18:30:32;15.07;;;7.60;;
10890;SDS011;5498;50.928;11.598;2022-12-20T18:33:35;13.30;;;6.83;;
10890;SDS011;5498;50.928;11.598;2022-12-20T18:36:39;12.90;;;7.33;;
10890;SDS011;5498;50.928;11.598;2022-12-20T18:39:41;11.27;;;6.60;;
10890;SDS011;5498;50.928;11.598;2022-12-20T18:42:43;11.77;;;5.60;;
10890;SDS011;5498;50.928;11.598;2022-12-20T18:45:44;12.13;;;7.83;;
10890;SDS011;5498;50.928;11.598;2022-12-20T18:48:48;14.17;;;6.23;;
10890;SDS011;5498;50.928;11.598;2022-12-20T18:51:53;12.07;;;6.57;;
10890;SDS011;5498;50.928;11.598;2022-12-20T18:54:55;11.57;;;6.33;;